Terminal Aerodrome Forecast
Issued by NWS

Home | Current Version | Previous Version | Text Only | Print | Product List | Glossary On
Versions: 1 2 3 4 5 6 7 8 9 10 11 12 13 14 15 16 17
000
FTUS41 KCAR 271120
TAFPQI
TAF
KPQI 271120Z 2712/2812 VRB03KT P6SM SCT250
     FM271600 20010KT 5SM -SHRA VCTS BKN050CB
     FM272100 20012KT 6SM -SHRA BKN040
     FM280100 21010KT P6SM BKN035
     FM280600 21007KT P6SM BKN020
      AMD LTD TO CLD VIS AND WIND=

USA.gov is the U.S. government's official web portal to all federal, state and local government web resources and services.